createdAt,value
2023-05-19T00:01:21.270Z,2.47
2023-05-19T00:03:57.830Z,3.13
2023-05-19T00:06:32.949Z,2.57
2023-05-19T00:09:02.157Z,2.28
2023-05-19T00:11:30.012Z,2.33
2023-05-19T00:13:58.681Z,2.40
2023-05-19T00:16:27.050Z,2.90
2023-05-19T00:18:54.395Z,3.47
2023-05-19T00:21:21.337Z,3.20
2023-05-19T00:23:48.279Z,3.47
2023-05-19T00:26:15.712Z,3.27
2023-05-19T00:28:42.624Z,3.50
2023-05-19T00:31:09.819Z,3.13
2023-05-19T00:33:36.774Z,3.10
2023-05-19T00:36:04.355Z,3.13
2023-05-19T00:38:32.261Z,3.00
2023-05-19T00:41:00.167Z,3.30
2023-05-19T00:43:27.490Z,2.70
2023-05-19T00:45:54.332Z,3.07
2023-05-19T00:48:21.838Z,2.20
2023-05-19T00:50:50.299Z,1.77
2023-05-19T00:53:18.606Z,1.70
2023-05-19T00:55:46.394Z,1.80
2023-05-19T00:58:14.498Z,1.80
2023-05-19T01:00:42.814Z,2.13
2023-05-19T01:03:13.137Z,2.03
2023-05-19T01:05:47.647Z,2.10
2023-05-19T01:08:14.605Z,1.80
2023-05-19T01:10:41.548Z,1.33
2023-05-19T01:13:09.715Z,1.50
2023-05-19T01:15:52.442Z,1.73
2023-05-19T01:18:28.102Z,2.00
2023-05-19T01:21:23.027Z,1.70
2023-05-19T01:24:09.973Z,1.47
2023-05-19T01:27:07.953Z,1.63
2023-05-19T01:29:46.772Z,1.60
2023-05-19T01:32:18.881Z,2.37
2023-05-19T01:34:48.981Z,1.93
2023-05-19T01:37:17.768Z,2.23
2023-05-19T01:39:45.794Z,1.63
2023-05-19T01:42:14.370Z,1.80
2023-05-19T01:44:41.932Z,2.00
2023-05-19T01:47:09.643Z,2.00
2023-05-19T01:49:36.859Z,1.90
2023-05-19T01:52:03.924Z,1.67
2023-05-19T01:54:30.785Z,1.60
2023-05-19T01:56:57.696Z,1.60
2023-05-19T01:59:33.848Z,1.37
2023-05-19T02:02:07.911Z,2.00
2023-05-19T02:04:51.299Z,2.20
2023-05-19T02:07:37.464Z,1.90
2023-05-19T02:10:14.764Z,1.33
2023-05-19T02:12:41.973Z,1.50
2023-05-19T02:15:16.215Z,1.90
2023-05-19T02:17:51.789Z,1.70
2023-05-19T02:20:19.444Z,1.60
2023-05-19T02:22:46.473Z,1.70
2023-05-19T02:25:13.461Z,3.20
2023-05-19T02:27:41.627Z,2.60
2023-05-19T02:30:09.592Z,3.70
2023-05-19T02:32:36.603Z,4.00
2023-05-19T02:35:04.092Z,4.07
2023-05-19T02:37:31.255Z,3.90
2023-05-19T02:39:58.570Z,3.83
2023-05-19T02:42:25.634Z,3.93
2023-05-19T02:44:54.596Z,3.80
2023-05-19T02:47:21.649Z,3.50
2023-05-19T02:49:48.654Z,2.30
2023-05-19T02:52:15.702Z,1.87
2023-05-19T02:54:42.833Z,1.90
2023-05-19T02:57:10.163Z,1.50
2023-05-19T02:59:37.586Z,1.90
2023-05-19T03:02:04.701Z,1.77
2023-05-19T03:04:31.812Z,2.00
2023-05-19T03:06:58.769Z,1.57
2023-05-19T03:09:25.866Z,1.77
2023-05-19T03:11:52.810Z,1.83
2023-05-19T03:14:24.173Z,1.70
2023-05-19T03:16:51.558Z,1.60
2023-05-19T03:19:18.730Z,1.60
2023-05-19T03:21:45.770Z,1.50
2023-05-19T03:24:12.695Z,1.53
2023-05-19T03:26:40.003Z,1.70
2023-05-19T03:29:08.026Z,2.20
2023-05-19T03:31:35.054Z,1.97
2023-05-19T03:34:02.217Z,1.90
2023-05-19T03:36:39.931Z,1.90
2023-05-19T03:39:07.282Z,1.63
2023-05-19T03:41:34.159Z,1.70
2023-05-19T03:44:01.421Z,1.80
2023-05-19T03:46:28.579Z,2.03
2023-05-19T03:48:55.682Z,1.70
2023-05-19T03:51:22.628Z,2.30
2023-05-19T03:53:49.533Z,1.83
2023-05-19T03:56:18.258Z,1.50
2023-05-19T03:58:47.115Z,1.97
2023-05-19T04:01:14.110Z,2.20
2023-05-19T04:03:41.676Z,3.60
2023-05-19T04:06:09.030Z,4.50
2023-05-19T04:08:36.238Z,2.73
2023-05-19T04:11:03.320Z,2.20
2023-05-19T04:13:30.877Z,2.20
2023-05-19T04:15:57.985Z,1.80
2023-05-19T04:18:26.873Z,1.60
2023-05-19T04:20:55.202Z,1.90
2023-05-19T04:23:22.231Z,2.40
2023-05-19T04:25:49.654Z,1.80
2023-05-19T04:28:16.852Z,1.80
2023-05-19T04:30:46.733Z,2.20
2023-05-19T04:33:14.139Z,2.17
2023-05-19T04:35:41.116Z,2.53
2023-05-19T04:38:08.209Z,2.20
2023-05-19T04:40:35.323Z,1.80
2023-05-19T04:43:02.459Z,2.23
2023-05-19T04:45:30.161Z,2.20
2023-05-19T04:47:58.335Z,1.80
2023-05-19T04:50:25.575Z,1.90
2023-05-19T04:52:52.526Z,1.60
2023-05-19T04:55:19.805Z,1.80
2023-05-19T04:57:47.081Z,1.70
2023-05-19T05:00:14.585Z,1.73
2023-05-19T05:02:43.069Z,1.43
2023-05-19T05:05:10.242Z,1.70
2023-05-19T05:07:37.234Z,1.60
2023-05-19T05:10:04.782Z,1.70
2023-05-19T05:12:32.641Z,1.97
2023-05-19T05:15:00.093Z,2.07
2023-05-19T05:17:28.392Z,1.60
2023-05-19T05:19:55.824Z,1.50
2023-05-19T05:22:23.184Z,1.50
2023-05-19T05:24:50.398Z,1.87
2023-05-19T05:27:17.421Z,2.63
2023-05-19T05:29:44.409Z,1.97
2023-05-19T05:32:11.497Z,1.93
2023-05-19T05:34:40.163Z,2.60
2023-05-19T05:37:07.232Z,1.83
2023-05-19T05:39:34.166Z,1.60
2023-05-19T05:42:01.105Z,1.53
2023-05-19T05:44:28.045Z,1.77
2023-05-19T05:46:55.286Z,2.33
2023-05-19T05:49:22.372Z,1.90
2023-05-19T05:52:01.933Z,2.47
2023-05-19T05:54:32.728Z,1.70
2023-05-19T05:56:59.909Z,1.43
2023-05-19T05:59:27.553Z,1.63
2023-05-19T06:01:54.569Z,1.80
2023-05-19T06:04:21.542Z,1.60
2023-05-19T06:06:48.587Z,1.20
2023-05-19T06:09:15.561Z,1.63
2023-05-19T06:11:42.470Z,1.97
2023-05-19T06:14:09.471Z,2.20
2023-05-19T06:16:36.524Z,2.07
2023-05-19T06:19:03.668Z,1.73
2023-05-19T06:21:30.912Z,2.37
2023-05-19T06:23:57.860Z,1.70
2023-05-19T06:26:24.733Z,1.80
2023-05-19T06:28:51.622Z,2.33
2023-05-19T06:31:18.630Z,2.00
2023-05-19T06:33:45.647Z,2.00
2023-05-19T06:36:13.967Z,1.87
2023-05-19T06:38:41.073Z,1.63
2023-05-19T06:41:08.249Z,1.70
2023-05-19T06:43:35.277Z,1.90
2023-05-19T06:46:02.250Z,1.90
2023-05-19T06:48:29.240Z,2.00
2023-05-19T06:50:56.619Z,2.33
2023-05-19T06:53:23.558Z,2.00
2023-05-19T06:55:58.716Z,3.20
2023-05-19T06:58:27.238Z,2.50
2023-05-19T07:00:54.411Z,2.17
2023-05-19T07:03:21.463Z,2.00
2023-05-19T07:05:48.639Z,1.97
2023-05-19T07:08:15.621Z,1.67
2023-05-19T07:10:42.556Z,2.37
2023-05-19T07:13:09.556Z,2.23
2023-05-19T07:15:36.492Z,1.87
2023-05-19T07:18:03.605Z,1.60
2023-05-19T07:20:30.867Z,1.70
2023-05-19T07:22:58.050Z,3.00
2023-05-19T07:25:26.265Z,1.70
2023-05-19T07:27:53.247Z,1.63
2023-05-19T07:30:20.203Z,1.63
2023-05-19T07:32:47.174Z,1.70
2023-05-19T07:35:14.444Z,1.60
2023-05-19T07:37:41.646Z,1.83
2023-05-19T07:40:09.449Z,1.70
2023-05-19T07:42:36.428Z,1.77
2023-05-19T07:45:03.759Z,1.60
2023-05-19T07:47:31.371Z,1.77
2023-05-19T07:49:58.409Z,1.47
2023-05-19T07:52:25.384Z,1.90
2023-05-19T07:54:53.218Z,1.80
2023-05-19T07:57:20.372Z,2.27
2023-05-19T07:59:47.369Z,2.00
2023-05-19T08:02:14.362Z,1.80
2023-05-19T08:04:41.477Z,1.77
2023-05-19T08:07:08.580Z,1.87
2023-05-19T08:09:35.663Z,1.97
2023-05-19T08:12:04.966Z,1.70
2023-05-19T08:14:33.417Z,1.70
2023-05-19T08:17:00.868Z,2.00
2023-05-19T08:19:28.091Z,1.80
2023-05-19T08:21:55.944Z,1.87
2023-05-19T08:24:22.885Z,1.70
2023-05-19T08:26:49.883Z,1.77
2023-05-19T08:29:16.863Z,2.00
2023-05-19T08:31:43.888Z,1.60
2023-05-19T08:34:11.074Z,1.70
2023-05-19T08:36:38.387Z,1.90
2023-05-19T08:39:05.470Z,1.80
2023-05-19T08:41:33.159Z,2.00
2023-05-19T08:44:00.307Z,2.10
2023-05-19T08:46:29.069Z,2.03
2023-05-19T08:49:15.886Z,1.87
2023-05-19T08:51:50.662Z,1.80
2023-05-19T08:54:18.415Z,1.85
2023-05-19T08:56:45.834Z,2.23
2023-05-19T08:59:15.370Z,2.00
2023-05-19T09:01:49.190Z,1.53
2023-05-19T09:04:17.434Z,2.20
2023-05-19T09:06:45.557Z,2.07
2023-05-19T09:09:12.700Z,2.10
2023-05-19T09:11:39.772Z,2.10
2023-05-19T09:14:06.759Z,2.23
2023-05-19T09:16:34.227Z,1.80
2023-05-19T09:19:01.416Z,2.10
2023-05-19T09:21:32.898Z,2.27
2023-05-19T09:24:10.173Z,2.13
2023-05-19T09:26:41.222Z,2.00
2023-05-19T09:29:18.582Z,2.07
2023-05-19T09:31:52.864Z,2.33
2023-05-19T09:34:22.270Z,2.00
2023-05-19T09:36:53.587Z,2.10
2023-05-19T09:39:22.779Z,2.60
2023-05-19T09:41:54.197Z,2.20
2023-05-19T09:44:24.155Z,2.03
2023-05-19T09:46:52.169Z,1.63
2023-05-19T09:49:29.025Z,2.60
2023-05-19T09:51:57.258Z,1.93
2023-05-19T09:54:25.396Z,2.00
2023-05-19T09:56:58.776Z,2.53
2023-05-19T09:59:26.480Z,2.10
2023-05-19T10:01:58.569Z,2.03
2023-05-19T10:04:27.696Z,1.90
2023-05-19T10:06:55.927Z,1.93
2023-05-19T10:09:27.469Z,1.97
2023-05-19T10:11:55.888Z,2.27
2023-05-19T10:14:27.602Z,1.90
2023-05-19T10:16:56.826Z,2.20
2023-05-19T10:19:25.975Z,2.23
2023-05-19T10:21:53.801Z,2.20
2023-05-19T10:24:21.549Z,2.13
2023-05-19T10:27:05.638Z,2.43
2023-05-19T10:29:36.951Z,2.10
2023-05-19T10:32:10.681Z,2.00
2023-05-19T10:34:59.399Z,2.60
2023-05-19T10:37:37.891Z,2.20
2023-05-19T10:40:37.201Z,3.30
2023-05-19T10:43:22.679Z,2.50
2023-05-19T10:45:53.179Z,2.50
2023-05-19T10:48:24.403Z,2.40
2023-05-19T10:50:56.488Z,2.67
2023-05-19T10:53:32.417Z,2.70
2023-05-19T10:56:07.004Z,2.10
2023-05-19T10:58:46.224Z,2.28
2023-05-19T11:01:21.025Z,2.13
2023-05-19T11:03:57.413Z,2.78
2023-05-19T11:06:28.850Z,2.10
2023-05-19T11:08:59.004Z,2.37
2023-05-19T11:11:26.441Z,2.20
2023-05-19T11:13:56.874Z,2.87
2023-05-19T11:16:34.614Z,2.57
2023-05-19T11:19:01.801Z,2.83
2023-05-19T11:21:49.347Z,2.23
2023-05-19T11:24:40.037Z,2.77
2023-05-19T11:27:31.391Z,2.60
2023-05-19T11:30:14.971Z,2.07
2023-05-19T11:32:43.075Z,2.87
2023-05-19T11:35:11.133Z,2.60
2023-05-19T11:37:40.456Z,2.80
2023-05-19T11:40:08.429Z,2.50
2023-05-19T11:42:37.174Z,2.50
2023-05-19T11:45:05.285Z,2.17
2023-05-19T11:47:42.140Z,2.20
2023-05-19T11:50:20.352Z,2.30
2023-05-19T11:52:47.688Z,2.50
2023-05-19T11:55:18.893Z,2.23
2023-05-19T11:58:05.882Z,2.57
2023-05-19T12:00:39.460Z,2.40
2023-05-19T12:03:07.506Z,2.30
2023-05-19T12:05:42.040Z,2.20
2023-05-19T12:08:10.669Z,2.40
2023-05-19T12:10:38.847Z,2.20
2023-05-19T12:13:09.068Z,2.30
2023-05-19T12:15:36.735Z,2.20
2023-05-19T12:18:03.943Z,2.27
2023-05-19T12:20:36.168Z,2.53
2023-05-19T12:23:04.102Z,2.17
2023-05-19T12:25:32.107Z,2.43
2023-05-19T12:28:05.697Z,2.30
2023-05-19T12:30:34.448Z,2.50
2023-05-19T12:33:02.924Z,2.30
2023-05-19T12:35:33.509Z,2.33
2023-05-19T12:38:07.262Z,2.40
2023-05-19T12:40:36.020Z,2.30
2023-05-19T12:43:04.106Z,2.30
2023-05-19T12:45:35.522Z,2.20
2023-05-19T12:48:26.129Z,2.23
2023-05-19T12:50:54.589Z,2.50
2023-05-19T12:53:21.928Z,2.17
2023-05-19T12:55:52.711Z,2.13
2023-05-19T12:58:19.888Z,2.20
2023-05-19T13:00:50.756Z,1.90
2023-05-19T13:03:19.700Z,1.90
2023-05-19T13:05:49.259Z,2.13
2023-05-19T13:08:18.654Z,1.73
2023-05-19T13:10:46.904Z,2.30
2023-05-19T13:13:14.167Z,2.30
2023-05-19T13:15:45.520Z,1.97
2023-05-19T13:18:13.681Z,2.10
2023-05-19T13:20:42.141Z,2.17
2023-05-19T13:23:11.215Z,1.90
2023-05-19T13:25:38.173Z,3.00
2023-05-19T13:28:06.002Z,1.90
2023-05-19T13:30:34.666Z,2.10
2023-05-19T13:33:02.436Z,1.70
2023-05-19T13:35:29.904Z,2.07
2023-05-19T13:37:56.949Z,2.23
2023-05-19T13:40:24.252Z,1.97
2023-05-19T13:42:51.660Z,2.10
2023-05-19T13:45:18.642Z,1.93
2023-05-19T13:47:45.632Z,2.10
2023-05-19T13:50:12.740Z,1.97
2023-05-19T13:52:39.728Z,1.97
2023-05-19T13:55:07.755Z,2.10
2023-05-19T13:57:35.464Z,2.17
2023-05-19T14:00:04.121Z,2.50
2023-05-19T14:02:32.209Z,1.97
2023-05-19T14:04:59.684Z,2.00
2023-05-19T14:07:27.224Z,2.23
2023-05-19T14:09:54.115Z,1.97
2023-05-19T14:12:27.618Z,2.07
2023-05-19T14:14:58.802Z,2.10
2023-05-19T14:17:27.635Z,2.40
2023-05-19T14:19:54.642Z,2.13
2023-05-19T14:22:21.672Z,2.00
2023-05-19T14:24:48.684Z,2.03
2023-05-19T14:27:15.976Z,1.90
2023-05-19T14:29:43.199Z,1.77
2023-05-19T14:32:10.129Z,1.97
2023-05-19T14:34:37.188Z,2.17
2023-05-19T14:37:04.252Z,3.33
2023-05-19T14:39:31.537Z,4.73
2023-05-19T14:41:59.762Z,2.40
2023-05-19T14:44:32.095Z,2.10
2023-05-19T14:47:01.200Z,2.30
2023-05-19T14:49:28.175Z,2.20
2023-05-19T14:51:55.230Z,2.23
2023-05-19T14:54:22.406Z,2.17
2023-05-19T14:56:49.452Z,2.03
2023-05-19T14:59:16.441Z,1.80
2023-05-19T15:01:43.672Z,2.00
2023-05-19T15:04:10.816Z,2.20
2023-05-19T15:06:37.858Z,2.00
2023-05-19T15:09:04.898Z,2.93
2023-05-19T15:11:31.846Z,2.00
2023-05-19T15:13:58.923Z,2.07
2023-05-19T15:16:25.976Z,2.20
2023-05-19T15:18:53.077Z,2.00
2023-05-19T15:21:20.108Z,2.20
2023-05-19T15:23:47.113Z,2.37
2023-05-19T15:26:14.102Z,2.10
2023-05-19T15:28:41.300Z,2.70
2023-05-19T15:31:08.374Z,3.27
2023-05-19T15:33:35.569Z,3.37
2023-05-19T15:36:02.802Z,2.73
2023-05-19T15:38:30.727Z,2.37
2023-05-19T15:40:57.812Z,2.60
2023-05-19T15:43:25.394Z,2.17
2023-05-19T15:45:55.040Z,2.27
2023-05-19T15:48:22.184Z,3.73
2023-05-19T15:50:49.150Z,3.90
2023-05-19T15:53:16.182Z,3.60
2023-05-19T15:55:43.452Z,3.77
2023-05-19T15:58:10.527Z,5.40
2023-05-19T16:00:37.633Z,4.93
2023-05-19T16:03:04.813Z,3.30
2023-05-19T16:05:31.866Z,4.10
2023-05-19T16:07:58.836Z,8.70
2023-05-19T16:10:25.889Z,5.73
2023-05-19T16:12:52.885Z,7.37
2023-05-19T16:15:19.813Z,8.03
2023-05-19T16:17:46.844Z,6.73
2023-05-19T16:20:14.077Z,5.50
2023-05-19T16:22:41.177Z,5.20
2023-05-19T16:25:08.560Z,3.30
2023-05-19T16:27:35.524Z,3.30
2023-05-19T16:30:03.296Z,2.93
2023-05-19T16:32:30.491Z,3.00
2023-05-19T16:34:57.544Z,3.17
2023-05-19T16:37:24.610Z,3.70
2023-05-19T16:39:51.673Z,3.00
2023-05-19T16:42:18.716Z,3.03
2023-05-19T16:44:45.693Z,2.93
2023-05-19T16:47:12.624Z,2.80
2023-05-19T16:49:40.905Z,2.70
2023-05-19T16:52:08.228Z,3.23
2023-05-19T16:54:35.327Z,2.67
2023-05-19T16:57:03.024Z,3.47
2023-05-19T16:59:29.921Z,4.17
2023-05-19T17:01:57.185Z,3.83
2023-05-19T17:04:24.288Z,3.87
2023-05-19T17:06:51.385Z,3.70
2023-05-19T17:09:18.361Z,4.30
2023-05-19T17:11:45.468Z,4.00
2023-05-19T17:14:12.372Z,4.10
2023-05-19T17:16:39.833Z,4.57
2023-05-19T17:19:06.829Z,4.07
2023-05-19T17:21:33.829Z,6.50
2023-05-19T17:24:01.085Z,14.67
2023-05-19T17:26:27.986Z,7.67
2023-05-19T17:28:55.651Z,9.53
2023-05-19T17:31:22.584Z,5.77
2023-05-19T17:33:49.648Z,5.03
2023-05-19T17:36:16.687Z,4.30
2023-05-19T17:38:43.786Z,4.40
2023-05-19T17:41:10.957Z,3.80
2023-05-19T17:43:38.873Z,4.33
2023-05-19T17:46:06.311Z,3.73
2023-05-19T17:48:33.858Z,4.83
2023-05-19T17:51:01.498Z,4.87
2023-05-19T17:53:29.459Z,4.93
2023-05-19T17:56:01.437Z,4.70
2023-05-19T17:58:29.219Z,5.30
2023-05-19T18:00:56.520Z,5.67
2023-05-19T18:03:24.072Z,4.73
2023-05-19T18:05:51.490Z,4.87
2023-05-19T18:08:18.754Z,5.23
2023-05-19T18:10:51.342Z,5.30
2023-05-19T18:13:18.376Z,4.63
2023-05-19T18:15:45.307Z,4.90
2023-05-19T18:18:12.866Z,4.97
2023-05-19T18:20:41.820Z,5.00
2023-05-19T18:23:08.824Z,5.00
2023-05-19T18:25:36.124Z,5.00
2023-05-19T18:28:03.260Z,6.00
2023-05-19T18:30:30.367Z,5.43
2023-05-19T18:32:57.509Z,5.50
2023-05-19T18:35:24.485Z,5.33
2023-05-19T18:37:54.490Z,5.30
2023-05-19T18:40:21.475Z,5.43
2023-05-19T18:42:48.468Z,5.57
2023-05-19T18:45:15.579Z,4.87
2023-05-19T18:47:42.634Z,5.13
2023-05-19T18:50:10.387Z,5.70
2023-05-19T18:52:37.371Z,6.53
2023-05-19T18:55:04.581Z,7.27
2023-05-19T18:57:31.694Z,6.53
2023-05-19T18:59:58.802Z,5.93
2023-05-19T19:02:26.176Z,7.27
2023-05-19T19:04:53.231Z,9.33
2023-05-19T19:07:20.241Z,10.60
2023-05-19T19:09:47.206Z,9.27
2023-05-19T19:12:14.209Z,8.30
2023-05-19T19:14:41.255Z,7.20
2023-05-19T19:17:08.315Z,9.00
2023-05-19T19:19:35.446Z,9.20
2023-05-19T19:22:02.782Z,9.20
2023-05-19T19:24:31.403Z,8.57
2023-05-19T19:26:58.303Z,8.77
2023-05-19T19:29:25.536Z,7.80
2023-05-19T19:31:52.718Z,7.73
2023-05-19T19:34:20.460Z,8.03
2023-05-19T19:36:47.983Z,8.97
2023-05-19T19:39:14.968Z,7.80
2023-05-19T19:41:41.994Z,7.90
2023-05-19T19:44:09.104Z,7.57
2023-05-19T19:46:36.296Z,9.17
2023-05-19T19:49:03.257Z,8.07
2023-05-19T19:51:30.260Z,6.33
2023-05-19T19:53:57.302Z,6.70
2023-05-19T19:56:26.377Z,7.00
2023-05-19T19:58:55.666Z,5.47
2023-05-19T20:01:27.405Z,5.30
2023-05-19T20:03:55.406Z,5.17
2023-05-19T20:06:22.587Z,5.23
2023-05-19T20:08:49.745Z,5.70
2023-05-19T20:11:16.788Z,5.60
2023-05-19T20:13:43.802Z,5.90
2023-05-19T20:16:10.889Z,6.10
2023-05-19T20:18:38.891Z,5.93
2023-05-19T20:21:05.906Z,5.97
2023-05-19T20:23:32.851Z,5.93
2023-05-19T20:26:10.736Z,6.87
2023-05-19T20:28:39.334Z,5.17
2023-05-19T20:31:06.513Z,5.50
2023-05-19T20:33:33.436Z,5.47
2023-05-19T20:36:00.415Z,5.00
2023-05-19T20:38:27.380Z,5.43
2023-05-19T20:40:54.927Z,6.33
2023-05-19T20:43:21.922Z,5.07
2023-05-19T20:45:48.929Z,5.37
2023-05-19T20:48:16.114Z,5.50
2023-05-19T20:50:43.231Z,4.83
2023-05-19T20:53:10.182Z,5.00
2023-05-19T20:55:38.773Z,4.13
2023-05-19T20:58:06.103Z,4.30
2023-05-19T21:00:33.764Z,4.13
2023-05-19T21:03:01.570Z,4.60
2023-05-19T21:05:28.721Z,4.60
2023-05-19T21:07:55.726Z,4.57
2023-05-19T21:10:22.608Z,4.20
2023-05-19T21:12:49.554Z,4.93
2023-05-19T21:15:16.510Z,4.30
2023-05-19T21:17:43.472Z,7.57
2023-05-19T21:20:11.037Z,13.00
2023-05-19T21:22:38.003Z,4.10
2023-05-19T21:25:05.420Z,30.43
2023-05-19T21:27:35.531Z,9.00
2023-05-19T21:30:02.664Z,5.77
2023-05-19T21:32:29.843Z,3.90
2023-05-19T21:34:56.793Z,2.97
2023-05-19T21:37:23.731Z,2.83
2023-05-19T21:39:50.781Z,3.07
2023-05-19T21:42:17.830Z,2.77
2023-05-19T21:44:44.807Z,3.00
2023-05-19T21:47:11.702Z,2.83
2023-05-19T21:49:40.145Z,2.87
2023-05-19T21:52:10.494Z,3.00
2023-05-19T21:54:37.509Z,2.50
2023-05-19T21:57:04.629Z,2.67
2023-05-19T21:59:31.638Z,2.70
2023-05-19T22:01:58.945Z,2.10
2023-05-19T22:04:25.954Z,2.40
2023-05-19T22:06:52.884Z,2.43
2023-05-19T22:09:19.833Z,2.30
2023-05-19T22:11:46.834Z,2.27
2023-05-19T22:14:14.017Z,2.20
2023-05-19T22:16:41.247Z,2.00
2023-05-19T22:19:08.306Z,2.10
2023-05-19T22:21:35.273Z,1.77
2023-05-19T22:24:02.330Z,2.50
2023-05-19T22:26:29.291Z,2.13
2023-05-19T22:28:56.611Z,2.33
2023-05-19T22:31:23.605Z,1.97
2023-05-19T22:33:50.720Z,2.07
2023-05-19T22:36:17.726Z,2.07
2023-05-19T22:38:44.655Z,2.67
2023-05-19T22:41:11.611Z,1.80
2023-05-19T22:43:38.615Z,2.30
2023-05-19T22:46:06.007Z,1.60
2023-05-19T22:48:32.912Z,1.90
2023-05-19T22:51:00.045Z,1.80
2023-05-19T22:53:27.146Z,2.33
2023-05-19T22:55:54.137Z,2.63
2023-05-19T22:58:21.130Z,1.80
2023-05-19T23:00:48.062Z,1.50
2023-05-19T23:03:15.137Z,1.70
2023-05-19T23:05:42.691Z,2.57
2023-05-19T23:08:09.647Z,1.57
2023-05-19T23:10:36.520Z,1.87
2023-05-19T23:13:03.430Z,1.53
2023-05-19T23:15:30.884Z,1.70
2023-05-19T23:17:57.863Z,2.10
2023-05-19T23:20:24.802Z,1.83
2023-05-19T23:22:51.680Z,1.90
2023-05-19T23:25:18.581Z,1.60
2023-05-19T23:27:46.565Z,1.93
2023-05-19T23:30:13.550Z,2.03
2023-05-19T23:32:41.113Z,1.80
2023-05-19T23:35:16.351Z,2.10
2023-05-19T23:37:43.395Z,2.17
2023-05-19T23:40:10.765Z,1.80
2023-05-19T23:42:37.765Z,1.77
2023-05-19T23:45:05.557Z,1.60
2023-05-19T23:47:32.518Z,1.50
2023-05-19T23:49:59.457Z,1.77
2023-05-19T23:52:26.441Z,4.03
2023-05-19T23:54:53.423Z,2.27
2023-05-19T23:57:20.424Z,1.80
2023-05-19T23:59:47.454Z,1.83
